Terminal Aerodrome Forecast
Issued by NWS

Home | Current Version | Previous Version | Text Only | Print | Product List | Glossary On
Versions: 1 2 3 4 5 6 7 8 9 10 11 12 13 14 15 16 17 18 19 20 21 22 23 24 25 26
000
FTUS44 KMOB 271124
TAFBFM
TAF
KBFM 271124Z 2712/2812 32005KT P6SM FEW060 SCT140 BKN200
     FM271500 04006KT P6SM FEW035 BKN200
     FM271800 06006KT P6SM VCTS SCT035CB BKN200
     FM272100 05006KT P6SM SCT035 PROB30 2721/2723 P6SM TS BKN025CB
     FM280000 09004KT P6SM SCT100 BKN200=

USA.gov is the U.S. government's official web portal to all federal, state and local government web resources and services.